CG George Cobb — NTVY — position and weather

sailwx.info

Track history (hours):
 
Tides and Currents Weather Stations Pressure Air Temp Water Temp Dewpoint Dewpoint Depression Visibility Wind Speed Wind Dir Waves Ship Positions

CG George Cobb

Last reported at 2018-Jun-19 12:30 UTC. Time now 2018-Jun-19 12:35 UTC.
Position N 33°43' W 118°16'.

Length 53 m; draft 2.7 m.

Type: Law enforcement. MMSI: 338921000.

Date/timePositionNaut miles runAvg speedWind from/ knotsBaromVisibWave heightAir tempDewpointWater temp
2018-Jun-19 12:30N 33°43' W 118°16'0 0.0
2018-Jun-19 12:00N 33°43' W 118°16'0 0.0
2018-Jun-19 11:29N 33°43' W 118°16'0 0.0
2018-Jun-19 10:59N 33°43' W 118°16'0 0.0
2018-Jun-19 10:29N 33°43' W 118°16'0 0.0
2018-Jun-19 09:59N 33°43' W 118°16'0 0.0
2018-Jun-19 09:27N 33°43' W 118°16'0 0.0
2018-Jun-19 08:59N 33°43' W 118°16'0 0.0
2018-Jun-19 08:29N 33°43' W 118°16'0 0.0
2018-Jun-19 07:59N 33°43' W 118°16'0 0.0
2018-Jun-19 07:26N 33°43' W 118°16'0 0.0
2018-Jun-19 06:59N 33°43' W 118°16'0 0.0
2018-Jun-19 06:30N 33°43' W 118°16'0 0.0
2018-Jun-19 06:00N 33°43' W 118°16'0 0.0
2018-Jun-19 05:12N 33°43' W 118°16'0 0.0
2018-Jun-19 04:57N 33°43' W 118°16'0 0.0
2018-Jun-19 04:21N 33°43' W 118°16'0 0.0
2018-Jun-19 03:57N 33°43' W 118°16'0 0.0
2018-Jun-19 03:30N 33°43' W 118°16'0 0.0
2018-Jun-19 03:00N 33°43' W 118°16'0 0.0
2018-Jun-19 02:30N 33°43' W 118°16'0 0.0
2018-Jun-19 02:00N 33°43' W 118°16'0 0.0
2018-Jun-19 01:30N 33°43' W 118°16'0 0.0
2018-Jun-19 01:00N 33°43' W 118°16'0 0.0
2018-Jun-19 00:30N 33°43' W 118°16'0 0.0
2018-Jun-19 00:00N 33°43' W 118°16'0 0.0
2018-Jun-18 23:30N 33°43' W 118°16'3 6.1
2018-Jun-18 23:00N 33°41' W 118°14'5 9.3
2018-Jun-18 22:30N 33°42' W 118°08'3 5.0
2018-Jun-18 22:00N 33°44' W 118°06'0 0.0
2018-Jun-18 21:29N 33°44' W 118°06'4 7.8
2018-Jun-18 21:00N 33°41' W 118°10'4 8.0
2018-Jun-18 20:30N 33°42' W 118°14'0 1.0
2018-Jun-18 20:00N 33°42' W 118°15'0 0.0
2018-Jun-18 19:30N 33°42' W 118°15'0 0.0
2018-Jun-18 19:00N 33°42' W 118°15'0 0.0
2018-Jun-18 18:30N 33°42' W 118°15'0 0.3
2018-Jun-18 18:00N 33°42' W 118°14'0 0.0
2018-Jun-18 17:31N 33°42' W 118°14'0 0.1
2018-Jun-18 17:00N 33°42' W 118°14'0 0.0
2018-Jun-18 16:31N 33°42' W 118°14'2 4.1
2018-Jun-18 16:00N 33°43' W 118°16'0 0.0
2018-Jun-18 15:30N 33°43' W 118°16'0 0.0
2018-Jun-18 14:54N 33°43' W 118°16'0 0.0
2018-Jun-18 14:30N 33°43' W 118°16'0 0.0
2018-Jun-18 13:57N 33°43' W 118°16'0 0.0
2018-Jun-18 13:28N 33°43' W 118°16'0 0.0
2018-Jun-18 12:59N 33°43' W 118°16'0 0.0
2018-Jun-18 12:29N 33°43' W 118°16'0 0.0
2018-Jun-18 11:50N 33°43' W 118°16'0 0.0
2018-Jun-18 11:23N 33°43' W 118°16'0 0.0
2018-Jun-18 10:59N 33°43' W 118°16'0 0.0
2018-Jun-18 10:29N 33°43' W 118°16'0 0.0
2018-Jun-18 09:59N 33°43' W 118°16'0 0.0
2018-Jun-18 09:26N 33°43' W 118°16'0 0.0
2018-Jun-18 08:47N 33°43' W 118°16'0 0.0
2018-Jun-18 08:23N 33°43' W 118°16'0 0.0
2018-Jun-18 07:56N 33°43' W 118°16'0 0.0
2018-Jun-18 07:28N 33°43' W 118°16'0 0.0
2018-Jun-18 06:50N 33°43' W 118°16'0 0.0
2018-Jun-18 06:20N 33°43' W 118°16'0 0.0
2018-Jun-18 05:53N 33°43' W 118°16'0 0.0
2018-Jun-18 05:25N 33°43' W 118°16'0 0.0
2018-Jun-18 04:49N 33°43' W 118°16'0 0.0
2018-Jun-18 04:17N 33°43' W 118°16'0 0.0
2018-Jun-18 03:55N 33°43' W 118°16'0 0.0
2018-Jun-18 03:29N 33°43' W 118°16'0 0.0
2018-Jun-18 02:59N 33°43' W 118°16'0 0.0
2018-Jun-18 02:29N 33°43' W 118°16'0 0.0
2018-Jun-18 01:59N 33°43' W 118°16'0 0.0
2018-Jun-18 01:20N 33°43' W 118°16'0 0.0
2018-Jun-18 00:59N 33°43' W 118°16'0 0.0
2018-Jun-18 00:29N 33°43' W 118°16'0 0.0
2018-Jun-17 23:59N 33°43' W 118°16'0 0.0
2018-Jun-17 23:29N 33°43' W 118°16'0 0.0
2018-Jun-17 22:59N 33°43' W 118°16'0 0.0
2018-Jun-17 22:29N 33°43' W 118°16'0 0.0
2018-Jun-17 21:59N 33°43' W 118°16'0 0.0
2018-Jun-17 21:23N 33°43' W 118°16'0 0.0
2018-Jun-17 20:56N 33°43' W 118°16'0 0.0
2018-Jun-17 20:22N 33°43' W 118°16'0 0.0
2018-Jun-17 19:56N 33°43' W 118°16'0 0.0
2018-Jun-17 19:19N 33°43' W 118°16'0 0.0
2018-Jun-17 18:53N 33°43' W 118°16'0 0.0
2018-Jun-17 18:25N 33°43' W 118°16'0 0.0
2018-Jun-17 17:59N 33°43' W 118°16'0 0.0
2018-Jun-17 17:29N 33°43' W 118°16'0 0.0
2018-Jun-17 16:59N 33°43' W 118°16'0 0.0
2018-Jun-17 16:29N 33°43' W 118°16'0 0.0
2018-Jun-17 15:59N 33°43' W 118°16'0 0.0
2018-Jun-17 15:29N 33°43' W 118°16'0 0.0
2018-Jun-17 14:56N 33°43' W 118°16'0 0.0
2018-Jun-17 14:29N 33°43' W 118°16'0 0.0
2018-Jun-17 13:59N 33°43' W 118°16'0 0.0
2018-Jun-17 13:29N 33°43' W 118°16'0 0.0
2018-Jun-17 12:59N 33°43' W 118°16'0 0.0
2018-Jun-17 12:23N 33°43' W 118°16'0 0.0
2018-Jun-17 11:53N 33°43' W 118°16'0 0.0
2018-Jun-17 11:29N 33°43' W 118°16'0 0.0
2018-Jun-17 10:52N 33°43' W 118°16'0 0.0
2018-Jun-17 10:25N 33°43' W 118°16'0 0.0
2018-Jun-17 09:55N 33°43' W 118°16'0 0.0
2018-Jun-17 09:29N 33°43' W 118°16'0 0.0
2018-Jun-17 08:49N 33°43' W 118°16'0 0.0
2018-Jun-17 08:29N 33°43' W 118°16'0 0.0
2018-Jun-17 07:53N 33°43' W 118°16'0 0.0
2018-Jun-17 07:26N 33°43' W 118°16'0 0.0
2018-Jun-17 06:53N 33°43' W 118°16'0 0.0
2018-Jun-17 06:29N 33°43' W 118°16'0 0.0
2018-Jun-17 05:53N 33°43' W 118°16'0 0.0
2018-Jun-17 05:29N 33°43' W 118°16'0 0.0
2018-Jun-17 04:59N 33°43' W 118°16'0 0.0
2018-Jun-17 04:26N 33°43' W 118°16'0 0.0
2018-Jun-17 03:59N 33°43' W 118°16'0 0.0
2018-Jun-17 03:28N 33°43' W 118°16'0 0.0
2018-Jun-17 02:49N 33°43' W 118°16'0 0.0
2018-Jun-17 02:28N 33°43' W 118°16'0 0.0
2018-Jun-17 01:56N 33°43' W 118°16'0 0.0
2018-Jun-17 01:29N 33°43' W 118°16'0 0.0
2018-Jun-17 00:59N 33°43' W 118°16'0 0.0
2018-Jun-17 00:29N 33°43' W 118°16'0 0.0
2018-Jun-16 23:59N 33°43' W 118°16'0 0.0
2018-Jun-16 23:29N 33°43' W 118°16'0 0.0
2018-Jun-16 22:59N 33°43' W 118°16'0 0.0
2018-Jun-16 22:30N 33°43' W 118°16'0 0.0
2018-Jun-16 21:59N 33°43' W 118°16'0 0.0
2018-Jun-16 21:29N 33°43' W 118°16'0 0.0
2018-Jun-16 20:50N 33°43' W 118°16'0 0.0
2018-Jun-16 20:20N 33°43' W 118°16'0 0.0
2018-Jun-16 19:59N 33°43' W 118°16'0 0.0
2018-Jun-16 19:29N 33°43' W 118°16'0 0.0
2018-Jun-16 18:56N 33°43' W 118°16'0 0.0
2018-Jun-16 18:26N 33°43' W 118°16'0 0.0
2018-Jun-16 17:56N 33°43' W 118°16'0 0.0
2018-Jun-16 17:29N 33°43' W 118°16'0 0.0
2018-Jun-16 16:59N 33°43' W 118°16'0 0.0
2018-Jun-16 16:29N 33°43' W 118°16'0 0.0
2018-Jun-16 15:53N 33°43' W 118°16'0 0.0
2018-Jun-16 15:07N 33°43' W 118°16'0 0.0
2018-Jun-16 14:58N 33°43' W 118°16'0 0.0
2018-Jun-16 14:25N 33°43' W 118°16'0 0.0
2018-Jun-16 13:55N 33°43' W 118°16'0 0.0
2018-Jun-16 13:26N 33°43' W 118°16'0 0.0
2018-Jun-16 12:56N 33°43' W 118°16'0 0.0
2018-Jun-16 12:26N 33°43' W 118°16'0 0.0
2018-Jun-16 11:59N 33°43' W 118°16'0 0.0
2018-Jun-16 11:29N 33°43' W 118°16'0 0.0
2018-Jun-16 10:50N 33°43' W 118°16'0 0.0
2018-Jun-16 10:29N 33°43' W 118°16'0 0.0
2018-Jun-16 09:59N 33°43' W 118°16'0 0.0
2018-Jun-16 09:26N 33°43' W 118°16'0 0.0
2018-Jun-16 08:56N 33°43' W 118°16'0 0.0
2018-Jun-16 08:29N 33°43' W 118°16'0 0.0
2018-Jun-16 07:59N 33°43' W 118°16'0 0.0
2018-Jun-16 07:29N 33°43' W 118°16'0 0.0
2018-Jun-16 06:55N 33°43' W 118°16'0 0.0
2018-Jun-16 06:29N 33°43' W 118°16'0 0.0
2018-Jun-16 05:59N 33°43' W 118°16'0 0.0
2018-Jun-16 05:29N 33°43' W 118°16'0 0.0
2018-Jun-16 04:55N 33°43' W 118°16'0 0.0
2018-Jun-16 04:29N 33°43' W 118°16'0 0.0
2018-Jun-16 03:56N 33°43' W 118°16'0 0.0
2018-Jun-16 03:14N 33°43' W 118°16'0 0.0
2018-Jun-16 02:56N 33°43' W 118°16'0 0.0
2018-Jun-16 02:28N 33°43' W 118°16'0 0.0
2018-Jun-16 01:58N 33°43' W 118°16'0 0.0
2018-Jun-16 01:28N 33°43' W 118°16'0 0.0
2018-Jun-16 00:56N 33°43' W 118°16'0 0.0
2018-Jun-16 00:28N 33°43' W 118°16'0 0.0
2018-Jun-15 23:56N 33°43' W 118°16'0 0.0
2018-Jun-15 22:53N 33°43' W 118°16'0 0.0
2018-Jun-15 22:23N 33°43' W 118°16'0 0.0
2018-Jun-15 21:59N 33°43' W 118°16'0 0.0
2018-Jun-15 21:19N 33°43' W 118°16'0 0.0
2018-Jun-15 20:55N 33°43' W 118°16'0 0.0
2018-Jun-15 20:29N 33°43' W 118°16'0 0.0
2018-Jun-15 19:59N 33°43' W 118°16'0 0.0
2018-Jun-15 19:23N 33°43' W 118°16'0 0.0
2018-Jun-15 18:59N 33°43' W 118°16'0 0.0
2018-Jun-15 18:29N 33°43' W 118°16'0 0.0
2018-Jun-15 17:50N 33°43' W 118°16'0 0.0
2018-Jun-15 17:23N 33°43' W 118°16'0 0.0
2018-Jun-15 16:55N 33°43' W 118°16'0 0.0
2018-Jun-15 16:19N 33°43' W 118°16'0 0.0
2018-Jun-15 15:55N 33°43' W 118°16'0 0.0
2018-Jun-15 15:25N 33°43' W 118°16'0 0.0
2018-Jun-15 14:58N 33°43' W 118°16'0 0.0
2018-Jun-15 14:13N 33°43' W 118°16'0 0.0
2018-Jun-15 13:57N 33°43' W 118°16'0 0.0
2018-Jun-15 13:13N 33°43' W 118°16'0 0.0
2018-Jun-15 11:40N 33°43' W 118°16'0 0.0
2018-Jun-15 11:22N 33°43' W 118°16'0 0.0
2018-Jun-15 10:52N 33°43' W 118°16'0 0.0
2018-Jun-15 10:28N 33°43' W 118°16'0 0.0
2018-Jun-15 10:00N 33°43' W 118°16'0 0.0
2018-Jun-15 09:30N 33°43' W 118°16'0 0.0
2018-Jun-15 07:04N 33°43' W 118°16'0 0.0
2018-Jun-15 06:49N 33°43' W 118°16'0 0.0
2018-Jun-15 05:31N 33°43' W 118°16'0 0.0
2018-Jun-15 05:10N 33°43' W 118°16'0 0.0
2018-Jun-15 03:16N 33°43' W 118°16'0 0.0
2018-Jun-15 02:52N 33°43' W 118°16'0 0.0
2018-Jun-15 02:22N 33°43' W 118°16'0 0.0
2018-Jun-15 01:58N 33°43' W 118°16'0 0.0
2018-Jun-15 01:28N 33°43' W 118°16'0 0.0
2018-Jun-15 00:58N 33°43' W 118°16'0 0.0
2018-Jun-15 00:19N 33°43' W 118°16'0 0.0
2018-Jun-14 23:55N 33°43' W 118°16'0 0.0
2018-Jun-14 23:30N 33°43' W 118°16'0 0.0
2018-Jun-14 23:00N 33°43' W 118°16'0 0.0
2018-Jun-14 22:25N 33°43' W 118°16'0 0.0
2018-Jun-14 21:55N 33°43' W 118°16'0 0.0
2018-Jun-14 21:28N 33°43' W 118°16'0 0.0
2018-Jun-14 20:55N 33°43' W 118°16'0 0.0
2018-Jun-14 20:13N 33°43' W 118°16'0 0.0
2018-Jun-14 19:57N 33°43' W 118°16'0 0.0
2018-Jun-14 19:27N 33°43' W 118°16'0 0.0
2018-Jun-14 18:57N 33°43' W 118°16'0 0.0
2018-Jun-14 18:22N 33°43' W 118°16'0 0.0
2018-Jun-14 17:55N 33°43' W 118°16'0 0.0
2018-Jun-14 17:25N 33°43' W 118°16'0 0.0
2018-Jun-14 16:58N 33°43' W 118°16'0 0.0
2018-Jun-14 16:25N 33°43' W 118°16'0 0.0
2018-Jun-14 15:58N 33°43' W 118°16'0 0.0
2018-Jun-14 15:22N 33°43' W 118°16'0 0.0
2018-Jun-14 15:00N 33°43' W 118°16'0 0.0
2018-Jun-14 14:22N 33°43' W 118°16'0 0.0
2018-Jun-14 13:55N 33°43' W 118°16'0 0.0
2018-Jun-14 13:28N 33°43' W 118°16'0 0.0
2018-Jun-14 12:58N 33°43' W 118°16'0 0.0
2018-Jun-14 12:25N 33°43' W 118°16'0 0.0
2018-Jun-14 11:55N 33°43' W 118°16'0 0.0
2018-Jun-14 11:16N 33°43' W 118°16'0 0.0
2018-Jun-14 10:58N 33°43' W 118°16'0 0.0
2018-Jun-14 10:28N 33°43' W 118°16'0 0.0
2018-Jun-14 09:55N 33°43' W 118°16'0 0.0
2018-Jun-14 09:19N 33°43' W 118°16'0 0.0
2018-Jun-14 08:57N 33°43' W 118°16'0 0.0
2018-Jun-14 08:28N 33°43' W 118°16'0 0.0
2018-Jun-14 07:55N 33°43' W 118°16'0 0.0
2018-Jun-14 07:28N 33°43' W 118°16'0 0.0
2018-Jun-14 06:58N 33°43' W 118°16'0 0.0
2018-Jun-14 06:25N 33°43' W 118°16'0 0.0
2018-Jun-14 05:55N 33°43' W 118°16'0 0.0
2018-Jun-14 05:28N 33°43' W 118°16'0 0.0
2018-Jun-14 04:58N 33°43' W 118°16'0 0.0
2018-Jun-14 04:28N 33°43' W 118°16'0 0.0
2018-Jun-14 04:01N 33°43' W 118°16'0 0.0
2018-Jun-14 03:16N 33°43' W 118°16'0 0.0
2018-Jun-14 02:55N 33°43' W 118°16'0 0.0
2018-Jun-14 02:28N 33°43' W 118°16'0 0.0
2018-Jun-14 01:55N 33°43' W 118°16'0 0.0
2018-Jun-14 01:28N 33°43' W 118°16'0 0.0
2018-Jun-14 00:46N 33°43' W 118°16'0 0.0
2018-Jun-14 00:28N 33°43' W 118°16'0 0.0
2018-Jun-13 23:57N 33°43' W 118°16'0 0.0
2018-Jun-13 23:28N 33°43' W 118°16'0 0.0
2018-Jun-13 22:58N 33°43' W 118°16'0 0.0
2018-Jun-13 22:25N 33°43' W 118°16'0 0.0
2018-Jun-13 21:58N 33°43' W 118°16'0 0.0
2018-Jun-13 21:25N 33°43' W 118°16'0 0.0
2018-Jun-13 20:58N 33°43' W 118°16'0 0.0
2018-Jun-13 20:25N 33°43' W 118°16'0 0.0
2018-Jun-13 19:55N 33°43' W 118°16'0 0.0
2018-Jun-13 19:30N 33°43' W 118°16'0 0.0
2018-Jun-13 18:58N 33°43' W 118°16'0 0.0
2018-Jun-13 18:28N 33°43' W 118°16'0 0.0
2018-Jun-13 17:58N 33°43' W 118°16'0 0.0
2018-Jun-13 17:22N 33°43' W 118°16'0 0.0
2018-Jun-13 16:58N 33°43' W 118°16'0 0.0
2018-Jun-13 16:19N 33°43' W 118°16'0 0.0
2018-Jun-13 15:52N 33°43' W 118°16'0 0.0
2018-Jun-13 15:28N 33°43' W 118°16'0 0.0
2018-Jun-13 14:58N 33°43' W 118°16'0 0.0
2018-Jun-13 14:25N 33°43' W 118°16'0 0.0
2018-Jun-13 13:58N 33°43' W 118°16'0 0.0
2018-Jun-13 13:22N 33°43' W 118°16'0 0.0
2018-Jun-13 12:52N 33°43' W 118°16'0 0.0
2018-Jun-13 12:28N 33°43' W 118°16'0 0.0
2018-Jun-13 11:58N 33°43' W 118°16'0 0.0
2018-Jun-13 11:25N 33°43' W 118°16'0 0.0
2018-Jun-13 10:58N 33°43' W 118°16'0 0.0
2018-Jun-13 10:28N 33°43' W 118°16'0 0.0
2018-Jun-13 09:58N 33°43' W 118°16'0 0.0
2018-Jun-13 09:28N 33°43' W 118°16'0 0.0
2018-Jun-13 08:31N 33°43' W 118°16'0 0.0
2018-Jun-13 08:28N 33°43' W 118°16'0 0.0
2018-Jun-13 07:58N 33°43' W 118°16'0 0.0
2018-Jun-13 07:25N 33°43' W 118°16'0 0.0
2018-Jun-13 06:46N 33°43' W 118°16'0 0.0
2018-Jun-13 06:28N 33°43' W 118°16'0 0.0
2018-Jun-13 05:58N 33°43' W 118°16'0 0.0
2018-Jun-13 05:28N 33°43' W 118°16'0 0.0
2018-Jun-13 04:40N 33°43' W 118°16'0 0.0
2018-Jun-13 04:28N 33°43' W 118°16'0 0.0
2018-Jun-13 03:58N 33°43' W 118°16'0 0.0
2018-Jun-13 03:28N 33°43' W 118°16'0 0.0
2018-Jun-13 02:58N 33°43' W 118°16'0 0.0
2018-Jun-13 02:28N 33°43' W 118°16'0 0.0
2018-Jun-13 02:01N 33°43' W 118°16'0 0.0
2018-Jun-13 01:28N 33°43' W 118°16'0 0.0
2018-Jun-13 00:58N 33°43' W 118°16'0 0.0
2018-Jun-13 00:28N 33°43' W 118°16'0 0.0
2018-Jun-12 23:55N 33°43' W 118°16'0 0.0
2018-Jun-12 23:28N 33°43' W 118°16'0 0.0
2018-Jun-12 22:55N 33°43' W 118°16'0 0.0
2018-Jun-12 22:25N 33°43' W 118°16'0 0.0
2018-Jun-12 21:58N 33°43' W 118°16'0 0.0
2018-Jun-12 21:25N 33°43' W 118°16'0 0.0
2018-Jun-12 20:55N 33°43' W 118°16'0 0.0
2018-Jun-12 20:28N 33°43' W 118°16'0 0.0
2018-Jun-12 19:58N 33°43' W 118°16'0 0.0
2018-Jun-12 19:28N 33°43' W 118°16'0 0.0
2018-Jun-12 18:55N 33°43' W 118°16'0 0.0
2018-Jun-12 18:28N 33°43' W 118°16'0 0.0
2018-Jun-12 17:52N 33°43' W 118°16'0 0.0
2018-Jun-12 17:28N 33°43' W 118°16'0 0.0
2018-Jun-12 16:55N 33°43' W 118°16'0 0.0
2018-Jun-12 16:29N 33°43' W 118°16'0 0.0
2018-Jun-12 15:59N 33°43' W 118°16'0 0.0
2018-Jun-12 15:29N 33°43' W 118°16'0 0.0
2018-Jun-12 14:55N 33°43' W 118°16'0 0.0
2018-Jun-12 14:29N 33°43' W 118°16'0 0.0
2018-Jun-12 13:59N 33°43' W 118°16'0 0.0
2018-Jun-12 13:29N 33°43' W 118°16'0 0.0
2018-Jun-12 12:58N 33°43' W 118°16'0 0.0
2018-Jun-12 12:28N 33°43' W 118°16'0 0.0
2018-Jun-12 11:58N 33°43' W 118°16'0 0.0
2018-Jun-12 11:28N 33°43' W 118°16'0 0.0
2018-Jun-12 10:55N 33°43' W 118°16'0 0.0
2018-Jun-12 10:28N 33°43' W 118°16'0 0.0
2018-Jun-12 09:58N 33°43' W 118°16'0 0.0
2018-Jun-12 09:26N 33°43' W 118°16'0 0.0
2018-Jun-12 08:58N 33°43' W 118°16'0 0.0
2018-Jun-12 08:26N 33°43' W 118°16'0 0.0
2018-Jun-12 07:59N 33°43' W 118°16'0 0.0
2018-Jun-12 07:29N 33°43' W 118°16'0 0.0
2018-Jun-12 06:49N 33°43' W 118°16'0 0.0
2018-Jun-12 06:25N 33°43' W 118°16'0 0.0
2018-Jun-12 05:55N 33°43' W 118°16'0 0.0
2018-Jun-12 05:28N 33°43' W 118°16'0 0.0
2018-Jun-12 04:58N 33°43' W 118°16'0 0.0
2018-Jun-12 04:28N 33°43' W 118°16'0 0.0
2018-Jun-12 03:56N 33°43' W 118°16'0 0.0
2018-Jun-12 03:25N 33°43' W 118°16'0 0.0
2018-Jun-12 02:59N 33°43' W 118°16'0 0.0
2018-Jun-12 02:29N 33°43' W 118°16'0 0.0
2018-Jun-12 01:59N 33°43' W 118°16'0 0.0
2018-Jun-12 01:29N 33°43' W 118°16'0 0.0
2018-Jun-12 00:59N 33°43' W 118°16'0 0.0
2018-Jun-12 00:29N 33°43' W 118°16'0 0.0
2018-Jun-11 23:58N 33°43' W 118°16'0 0.0
2018-Jun-11 23:28N 33°43' W 118°16'0 0.0
2018-Jun-11 22:58N 33°43' W 118°16'0 0.0
2018-Jun-11 22:28N 33°43' W 118°16'0 0.0
2018-Jun-11 21:58N 33°43' W 118°16'0 0.0
2018-Jun-11 21:22N 33°43' W 118°16'0 0.0
2018-Jun-11 20:58N 33°43' W 118°16'0 0.0
2018-Jun-11 20:25N 33°43' W 118°16'0 0.0
2018-Jun-11 19:55N 33°43' W 118°16'0 0.0
2018-Jun-11 19:28N 33°43' W 118°16'0 0.0
2018-Jun-11 18:58N 33°43' W 118°16'0 0.0
2018-Jun-11 18:25N 33°43' W 118°16'0 0.0
2018-Jun-11 17:59N 33°43' W 118°16'0 0.0
2018-Jun-11 17:29N 33°43' W 118°16'0 0.0
2018-Jun-11 16:56N 33°43' W 118°16'0 0.0
2018-Jun-11 16:20N 33°43' W 118°16'0 0.0
2018-Jun-11 15:59N 33°43' W 118°16'0 0.0
2018-Jun-11 15:29N 33°43' W 118°16'0 0.0
2018-Jun-11 14:59N 33°43' W 118°16'0 0.0
2018-Jun-11 14:23N 33°43' W 118°16'0 0.0
2018-Jun-11 13:59N 33°43' W 118°16'0 0.0
2018-Jun-11 13:29N 33°43' W 118°16'0 0.0
2018-Jun-11 12:59N 33°43' W 118°16'0 0.0
2018-Jun-11 12:28N 33°43' W 118°16'0 0.0
2018-Jun-11 11:55N 33°43' W 118°16'0 0.0
2018-Jun-11 11:28N 33°43' W 118°16'0 0.0
2018-Jun-11 10:52N 33°43' W 118°16'0 0.0
2018-Jun-11 10:22N 33°43' W 118°16'0 0.0
2018-Jun-11 09:58N 33°43' W 118°16'0 0.0
2018-Jun-11 09:19N 33°43' W 118°16'0 0.0
2018-Jun-11 08:58N 33°43' W 118°16'0 0.0
2018-Jun-11 08:28N 33°43' W 118°16'0 0.0
2018-Jun-11 07:58N 33°43' W 118°16'0 0.0
2018-Jun-11 07:29N 33°43' W 118°16'0 0.0
2018-Jun-11 06:59N 33°43' W 118°16'0 0.0
2018-Jun-11 06:26N 33°43' W 118°16'0 0.0
2018-Jun-11 05:59N 33°43' W 118°16'0 0.0
2018-Jun-11 05:29N 33°43' W 118°16'0 0.0
2018-Jun-11 04:58N 33°43' W 118°16'0 0.0
2018-Jun-11 04:28N 33°43' W 118°16'0 0.0
2018-Jun-11 03:58N 33°43' W 118°16'0 0.0
2018-Jun-11 03:28N 33°43' W 118°16'0 0.0
2018-Jun-11 02:58N 33°43' W 118°16'0 0.0
2018-Jun-11 02:16N 33°43' W 118°16'0 0.0
2018-Jun-11 01:58N 33°43' W 118°16'0 0.0
2018-Jun-11 01:19N 33°43' W 118°16'0 0.0
2018-Jun-11 00:58N 33°43' W 118°16'0 0.0
2018-Jun-11 00:23N 33°43' W 118°16'0 0.0
2018-Jun-10 23:59N 33°43' W 118°16'0 0.0
2018-Jun-10 23:29N 33°43' W 118°16'0 0.0
2018-Jun-10 22:59N 33°43' W 118°16'0 0.0
2018-Jun-10 22:29N 33°43' W 118°16'0 0.0
2018-Jun-10 21:59N 33°43' W 118°16'0 0.0
2018-Jun-10 21:28N 33°43' W 118°16'0 0.0
2018-Jun-10 21:00N 33°43' W 118°16'0 0.0
2018-Jun-10 20:30N 33°43' W 118°16'0 0.0
2018-Jun-10 20:00N 33°43' W 118°16'0 0.0
2018-Jun-10 19:30N 33°43' W 118°16'0 0.0
2018-Jun-10 18:57N 33°43' W 118°16'0 0.0
2018-Jun-10 18:30N 33°43' W 118°16'0 0.0
2018-Jun-10 17:54N 33°43' W 118°16'0 0.0
2018-Jun-10 17:30N 33°43' W 118°16'0 0.0
2018-Jun-10 17:00N 33°43' W 118°16'0 0.0
2018-Jun-10 16:30N 33°43' W 118°16'0 0.0
2018-Jun-10 15:59N 33°43' W 118°16'0 0.0
2018-Jun-10 15:23N 33°43' W 118°16'0 0.0
2018-Jun-10 14:56N 33°43' W 118°16'0 0.0
2018-Jun-10 14:26N 33°43' W 118°16'0 0.0
2018-Jun-10 13:26N 33°43' W 118°16'0 0.0
2018-Jun-10 12:54N 33°43' W 118°16'0 0.0
2018-Jun-10 11:54N 33°43' W 118°16'0 0.0
2018-Jun-10 11:30N 33°43' W 118°16'0 0.0
2018-Jun-10 11:00N 33°43' W 118°16'0 0.0
2018-Jun-10 10:24N 33°43' W 118°16'0 0.0
2018-Jun-10 09:54N 33°43' W 118°16'0 0.0
2018-Jun-10 09:18N 33°43' W 118°16'0 0.0
2018-Jun-10 08:51N 33°43' W 118°16'0 0.0
2018-Jun-10 07:48N 33°43' W 118°16'0 0.0
2018-Jun-10 07:27N 33°43' W 118°16'0 0.0
2018-Jun-10 07:00N 33°43' W 118°16'0 0.0
2018-Jun-10 06:30N 33°43' W 118°16'0 0.0
2018-Jun-10 05:53N 33°43' W 118°16'0 0.0
2018-Jun-10 05:20N 33°43' W 118°16'0 0.0
2018-Jun-10 04:59N 33°43' W 118°16'0 0.0
2018-Jun-10 04:29N 33°43' W 118°16'0 0.0
2018-Jun-10 03:47N 33°43' W 118°16'0 0.0
2018-Jun-10 03:18N 33°43' W 118°16'0 0.0
2018-Jun-10 02:54N 33°43' W 118°16'0 0.0
2018-Jun-10 02:30N 33°43' W 118°16'0 0.0
2018-Jun-10 01:57N 33°43' W 118°16'0 0.0
2018-Jun-10 01:30N 33°43' W 118°16'0 0.0
2018-Jun-10 01:00N 33°43' W 118°16'0 0.0
2018-Jun-10 00:30N 33°43' W 118°16'0 0.0
2018-Jun-10 00:00N 33°43' W 118°16'0 0.0
2018-Jun-09 23:27N 33°43' W 118°16'0 0.0
2018-Jun-09 23:00N 33°43' W 118°16'0 0.0
2018-Jun-09 22:29N 33°43' W 118°16'0 0.0
2018-Jun-09 21:59N 33°43' W 118°16'0 0.0
2018-Jun-09 21:29N 33°43' W 118°16'0 0.0
2018-Jun-09 21:00N 33°43' W 118°16'0 0.0
2018-Jun-09 20:30N 33°43' W 118°16'0 0.0
2018-Jun-09 20:00N 33°43' W 118°16'0 0.0
2018-Jun-09 19:30N 33°43' W 118°16'0 0.0
2018-Jun-09 19:00N 33°43' W 118°16'0 0.0
2018-Jun-09 18:30N 33°43' W 118°16'0 0.0
2018-Jun-09 18:00N 33°43' W 118°16'0 0.0
2018-Jun-09 17:27N 33°43' W 118°16'0 0.0
2018-Jun-09 17:00N 33°43' W 118°16'0 0.0
2018-Jun-09 16:30N 33°43' W 118°16'0 0.0
2018-Jun-09 16:00N 33°43' W 118°16'0 0.0
2018-Jun-09 14:57N 33°43' W 118°16'0 0.0
2018-Jun-09 14:28N 33°43' W 118°16'0 0.0
2018-Jun-09 13:58N 33°43' W 118°16'0 0.0
2018-Jun-09 13:28N 33°43' W 118°16'0 0.0
2018-Jun-09 12:58N 33°43' W 118°16'  
Track history (hours):
 
Tides and Currents Weather Stations Pressure Air Temp Water Temp Dewpoint Dewpoint Depression Visibility Wind Speed Wind Dir Waves Ship Positions

CG George Cobb

Last reported at 2018-Jun-19 12:30 UTC. Time now 2018-Jun-19 12:35 UTC.
Position N 33°43' W 118°16'.

Length 53 m; draft 2.7 m.

Type: Law enforcement. MMSI: 338921000.

Date/timePositionNaut miles runAvg speedWind from/ knotsBaromVisibWave heightAir tempDewpointWater temp
2018-Jun-19 12:30N 33°43' W 118°16'0 0.0
2018-Jun-19 12:00N 33°43' W 118°16'0 0.0
2018-Jun-19 11:29N 33°43' W 118°16'0 0.0
2018-Jun-19 10:59N 33°43' W 118°16'0 0.0
2018-Jun-19 10:29N 33°43' W 118°16'0 0.0
2018-Jun-19 09:59N 33°43' W 118°16'0 0.0
2018-Jun-19 09:27N 33°43' W 118°16'0 0.0
2018-Jun-19 08:59N 33°43' W 118°16'0 0.0
2018-Jun-19 08:29N 33°43' W 118°16'0 0.0
2018-Jun-19 07:59N 33°43' W 118°16'0 0.0
2018-Jun-19 07:26N 33°43' W 118°16'0 0.0
2018-Jun-19 06:59N 33°43' W 118°16'0 0.0
2018-Jun-19 06:30N 33°43' W 118°16'0 0.0
2018-Jun-19 06:00N 33°43' W 118°16'0 0.0
2018-Jun-19 05:12N 33°43' W 118°16'0 0.0
2018-Jun-19 04:57N 33°43' W 118°16'0 0.0
2018-Jun-19 04:21N 33°43' W 118°16'0 0.0
2018-Jun-19 03:57N 33°43' W 118°16'0 0.0
2018-Jun-19 03:30N 33°43' W 118°16'0 0.0
2018-Jun-19 03:00N 33°43' W 118°16'0 0.0
2018-Jun-19 02:30N 33°43' W 118°16'0 0.0
2018-Jun-19 02:00N 33°43' W 118°16'0 0.0
2018-Jun-19 01:30N 33°43' W 118°16'0 0.0
2018-Jun-19 01:00N 33°43' W 118°16'0 0.0
2018-Jun-19 00:30N 33°43' W 118°16'0 0.0
2018-Jun-19 00:00N 33°43' W 118°16'0 0.0
2018-Jun-18 23:30N 33°43' W 118°16'3 6.1
2018-Jun-18 23:00N 33°41' W 118°14'5 9.3
2018-Jun-18 22:30N 33°42' W 118°08'3 5.0
2018-Jun-18 22:00N 33°44' W 118°06'0 0.0
2018-Jun-18 21:29N 33°44' W 118°06'4 7.8
2018-Jun-18 21:00N 33°41' W 118°10'4 8.0
2018-Jun-18 20:30N 33°42' W 118°14'0 1.0
2018-Jun-18 20:00N 33°42' W 118°15'0 0.0
2018-Jun-18 19:30N 33°42' W 118°15'0 0.0
2018-Jun-18 19:00N 33°42' W 118°15'0 0.0
2018-Jun-18 18:30N 33°42' W 118°15'0 0.3
2018-Jun-18 18:00N 33°42' W 118°14'0 0.0
2018-Jun-18 17:31N 33°42' W 118°14'0 0.1
2018-Jun-18 17:00N 33°42' W 118°14'0 0.0
2018-Jun-18 16:31N 33°42' W 118°14'2 4.1
2018-Jun-18 16:00N 33°43' W 118°16'0 0.0
2018-Jun-18 15:30N 33°43' W 118°16'0 0.0
2018-Jun-18 14:54N 33°43' W 118°16'0 0.0
2018-Jun-18 14:30N 33°43' W 118°16'0 0.0
2018-Jun-18 13:57N 33°43' W 118°16'0 0.0
2018-Jun-18 13:28N 33°43' W 118°16'0 0.0
2018-Jun-18 12:59N 33°43' W 118°16'0 0.0
2018-Jun-18 12:29N 33°43' W 118°16'0 0.0
2018-Jun-18 11:50N 33°43' W 118°16'0 0.0
2018-Jun-18 11:23N 33°43' W 118°16'0 0.0
2018-Jun-18 10:59N 33°43' W 118°16'0 0.0
2018-Jun-18 10:29N 33°43' W 118°16'0 0.0
2018-Jun-18 09:59N 33°43' W 118°16'0 0.0
2018-Jun-18 09:26N 33°43' W 118°16'0 0.0
2018-Jun-18 08:47N 33°43' W 118°16'0 0.0
2018-Jun-18 08:23N 33°43' W 118°16'0 0.0
2018-Jun-18 07:56N 33°43' W 118°16'0 0.0
2018-Jun-18 07:28N 33°43' W 118°16'0 0.0
2018-Jun-18 06:50N 33°43' W 118°16'0 0.0
2018-Jun-18 06:20N 33°43' W 118°16'0 0.0
2018-Jun-18 05:53N 33°43' W 118°16'0 0.0
2018-Jun-18 05:25N 33°43' W 118°16'0 0.0
2018-Jun-18 04:49N 33°43' W 118°16'0 0.0
2018-Jun-18 04:17N 33°43' W 118°16'0 0.0
2018-Jun-18 03:55N 33°43' W 118°16'0 0.0
2018-Jun-18 03:29N 33°43' W 118°16'0 0.0
2018-Jun-18 02:59N 33°43' W 118°16'0 0.0
2018-Jun-18 02:29N 33°43' W 118°16'0 0.0
2018-Jun-18 01:59N 33°43' W 118°16'0 0.0
2018-Jun-18 01:20N 33°43' W 118°16'0 0.0
2018-Jun-18 00:59N 33°43' W 118°16'0 0.0
2018-Jun-18 00:29N 33°43' W 118°16'0 0.0
2018-Jun-17 23:59N 33°43' W 118°16'0 0.0
2018-Jun-17 23:29N 33°43' W 118°16'0 0.0
2018-Jun-17 22:59N 33°43' W 118°16'0 0.0
2018-Jun-17 22:29N 33°43' W 118°16'0 0.0
2018-Jun-17 21:59N 33°43' W 118°16'0 0.0
2018-Jun-17 21:23N 33°43' W 118°16'0 0.0
2018-Jun-17 20:56N 33°43' W 118°16'0 0.0
2018-Jun-17 20:22N 33°43' W 118°16'0 0.0
2018-Jun-17 19:56N 33°43' W 118°16'0 0.0
2018-Jun-17 19:19N 33°43' W 118°16'0 0.0
2018-Jun-17 18:53N 33°43' W 118°16'0 0.0
2018-Jun-17 18:25N 33°43' W 118°16'0 0.0
2018-Jun-17 17:59N 33°43' W 118°16'0 0.0
2018-Jun-17 17:29N 33°43' W 118°16'0 0.0
2018-Jun-17 16:59N 33°43' W 118°16'0 0.0
2018-Jun-17 16:29N 33°43' W 118°16'0 0.0
2018-Jun-17 15:59N 33°43' W 118°16'0 0.0
2018-Jun-17 15:29N 33°43' W 118°16'0 0.0
2018-Jun-17 14:56N 33°43' W 118°16'0 0.0
2018-Jun-17 14:29N 33°43' W 118°16'0 0.0
2018-Jun-17 13:59N 33°43' W 118°16'0 0.0
2018-Jun-17 13:29N 33°43' W 118°16'0 0.0
2018-Jun-17 12:59N 33°43' W 118°16'0 0.0
2018-Jun-17 12:23N 33°43' W 118°16'0 0.0
2018-Jun-17 11:53N 33°43' W 118°16'0 0.0
2018-Jun-17 11:29N 33°43' W 118°16'0 0.0
2018-Jun-17 10:52N 33°43' W 118°16'0 0.0
2018-Jun-17 10:25N 33°43' W 118°16'0 0.0
2018-Jun-17 09:55N 33°43' W 118°16'0 0.0
2018-Jun-17 09:29N 33°43' W 118°16'0 0.0
2018-Jun-17 08:49N 33°43' W 118°16'0 0.0
2018-Jun-17 08:29N 33°43' W 118°16'0 0.0
2018-Jun-17 07:53N 33°43' W 118°16'0 0.0
2018-Jun-17 07:26N 33°43' W 118°16'0 0.0
2018-Jun-17 06:53N 33°43' W 118°16'0 0.0
2018-Jun-17 06:29N 33°43' W 118°16'0 0.0
2018-Jun-17 05:53N 33°43' W 118°16'0 0.0
2018-Jun-17 05:29N 33°43' W 118°16'0 0.0
2018-Jun-17 04:59N 33°43' W 118°16'0 0.0
2018-Jun-17 04:26N 33°43' W 118°16'0 0.0
2018-Jun-17 03:59N 33°43' W 118°16'0 0.0
2018-Jun-17 03:28N 33°43' W 118°16'0 0.0
2018-Jun-17 02:49N 33°43' W 118°16'0 0.0
2018-Jun-17 02:28N 33°43' W 118°16'0 0.0
2018-Jun-17 01:56N 33°43' W 118°16'0 0.0
2018-Jun-17 01:29N 33°43' W 118°16'0 0.0
2018-Jun-17 00:59N 33°43' W 118°16'0 0.0
2018-Jun-17 00:29N 33°43' W 118°16'0 0.0
2018-Jun-16 23:59N 33°43' W 118°16'0 0.0
2018-Jun-16 23:29N 33°43' W 118°16'0 0.0
2018-Jun-16 22:59N 33°43' W 118°16'0 0.0
2018-Jun-16 22:30N 33°43' W 118°16'0 0.0
2018-Jun-16 21:59N 33°43' W 118°16'0 0.0
2018-Jun-16 21:29N 33°43' W 118°16'0 0.0
2018-Jun-16 20:50N 33°43' W 118°16'0 0.0
2018-Jun-16 20:20N 33°43' W 118°16'0 0.0
2018-Jun-16 19:59N 33°43' W 118°16'0 0.0
2018-Jun-16 19:29N 33°43' W 118°16'0 0.0
2018-Jun-16 18:56N 33°43' W 118°16'0 0.0
2018-Jun-16 18:26N 33°43' W 118°16'0 0.0
2018-Jun-16 17:56N 33°43' W 118°16'0 0.0
2018-Jun-16 17:29N 33°43' W 118°16'0 0.0
2018-Jun-16 16:59N 33°43' W 118°16'0 0.0
2018-Jun-16 16:29N 33°43' W 118°16'0 0.0
2018-Jun-16 15:53N 33°43' W 118°16'0 0.0
2018-Jun-16 15:07N 33°43' W 118°16'0 0.0
2018-Jun-16 14:58N 33°43' W 118°16'0 0.0
2018-Jun-16 14:25N 33°43' W 118°16'0 0.0
2018-Jun-16 13:55N 33°43' W 118°16'0 0.0
2018-Jun-16 13:26N 33°43' W 118°16'0 0.0
2018-Jun-16 12:56N 33°43' W 118°16'0 0.0
2018-Jun-16 12:26N 33°43' W 118°16'0 0.0
2018-Jun-16 11:59N 33°43' W 118°16'0 0.0
2018-Jun-16 11:29N 33°43' W 118°16'0 0.0
2018-Jun-16 10:50N 33°43' W 118°16'0 0.0
2018-Jun-16 10:29N 33°43' W 118°16'0 0.0
2018-Jun-16 09:59N 33°43' W 118°16'0 0.0
2018-Jun-16 09:26N 33°43' W 118°16'0 0.0
2018-Jun-16 08:56N 33°43' W 118°16'0 0.0
2018-Jun-16 08:29N 33°43' W 118°16'0 0.0
2018-Jun-16 07:59N 33°43' W 118°16'0 0.0
2018-Jun-16 07:29N 33°43' W 118°16'0 0.0
2018-Jun-16 06:55N 33°43' W 118°16'0 0.0
2018-Jun-16 06:29N 33°43' W 118°16'0 0.0
2018-Jun-16 05:59N 33°43' W 118°16'0 0.0
2018-Jun-16 05:29N 33°43' W 118°16'0 0.0
2018-Jun-16 04:55N 33°43' W 118°16'0 0.0
2018-Jun-16 04:29N 33°43' W 118°16'0 0.0
2018-Jun-16 03:56N 33°43' W 118°16'0 0.0
2018-Jun-16 03:14N 33°43' W 118°16'0 0.0
2018-Jun-16 02:56N 33°43' W 118°16'0 0.0
2018-Jun-16 02:28N 33°43' W 118°16'0 0.0
2018-Jun-16 01:58N 33°43' W 118°16'0 0.0
2018-Jun-16 01:28N 33°43' W 118°16'0 0.0
2018-Jun-16 00:56N 33°43' W 118°16'0 0.0
2018-Jun-16 00:28N 33°43' W 118°16'0 0.0
2018-Jun-15 23:56N 33°43' W 118°16'0 0.0
2018-Jun-15 22:53N 33°43' W 118°16'0 0.0
2018-Jun-15 22:23N 33°43' W 118°16'0 0.0
2018-Jun-15 21:59N 33°43' W 118°16'0 0.0
2018-Jun-15 21:19N 33°43' W 118°16'0 0.0
2018-Jun-15 20:55N 33°43' W 118°16'0 0.0
2018-Jun-15 20:29N 33°43' W 118°16'0 0.0
2018-Jun-15 19:59N 33°43' W 118°16'0 0.0
2018-Jun-15 19:23N 33°43' W 118°16'0 0.0
2018-Jun-15 18:59N 33°43' W 118°16'0 0.0
2018-Jun-15 18:29N 33°43' W 118°16'0 0.0
2018-Jun-15 17:50N 33°43' W 118°16'0 0.0
2018-Jun-15 17:23N 33°43' W 118°16'0 0.0
2018-Jun-15 16:55N 33°43' W 118°16'0 0.0
2018-Jun-15 16:19N 33°43' W 118°16'0 0.0
2018-Jun-15 15:55N 33°43' W 118°16'0 0.0
2018-Jun-15 15:25N 33°43' W 118°16'0 0.0
2018-Jun-15 14:58N 33°43' W 118°16'0 0.0
2018-Jun-15 14:13N 33°43' W 118°16'0 0.0
2018-Jun-15 13:57N 33°43' W 118°16'0 0.0
2018-Jun-15 13:13N 33°43' W 118°16'0 0.0
2018-Jun-15 11:40N 33°43' W 118°16'0 0.0
2018-Jun-15 11:22N 33°43' W 118°16'0 0.0
2018-Jun-15 10:52N 33°43' W 118°16'0 0.0
2018-Jun-15 10:28N 33°43' W 118°16'0 0.0
2018-Jun-15 10:00N 33°43' W 118°16'0 0.0
2018-Jun-15 09:30N 33°43' W 118°16'0 0.0
2018-Jun-15 07:04N 33°43' W 118°16'0 0.0
2018-Jun-15 06:49N 33°43' W 118°16'0 0.0
2018-Jun-15 05:31N 33°43' W 118°16'0 0.0
2018-Jun-15 05:10N 33°43' W 118°16'0 0.0
2018-Jun-15 03:16N 33°43' W 118°16'0 0.0
2018-Jun-15 02:52N 33°43' W 118°16'0 0.0
2018-Jun-15 02:22N 33°43' W 118°16'0 0.0
2018-Jun-15 01:58N 33°43' W 118°16'0 0.0
2018-Jun-15 01:28N 33°43' W 118°16'0 0.0
2018-Jun-15 00:58N 33°43' W 118°16'0 0.0
2018-Jun-15 00:19N 33°43' W 118°16'0 0.0
2018-Jun-14 23:55N 33°43' W 118°16'0 0.0
2018-Jun-14 23:30N 33°43' W 118°16'0 0.0
2018-Jun-14 23:00N 33°43' W 118°16'0 0.0
2018-Jun-14 22:25N 33°43' W 118°16'0 0.0
2018-Jun-14 21:55N 33°43' W 118°16'0 0.0
2018-Jun-14 21:28N 33°43' W 118°16'0 0.0
2018-Jun-14 20:55N 33°43' W 118°16'0 0.0
2018-Jun-14 20:13N 33°43' W 118°16'0 0.0
2018-Jun-14 19:57N 33°43' W 118°16'0 0.0
2018-Jun-14 19:27N 33°43' W 118°16'0 0.0
2018-Jun-14 18:57N 33°43' W 118°16'0 0.0
2018-Jun-14 18:22N 33°43' W 118°16'0 0.0
2018-Jun-14 17:55N 33°43' W 118°16'0 0.0
2018-Jun-14 17:25N 33°43' W 118°16'0 0.0
2018-Jun-14 16:58N 33°43' W 118°16'0 0.0
2018-Jun-14 16:25N 33°43' W 118°16'0 0.0
2018-Jun-14 15:58N 33°43' W 118°16'0 0.0
2018-Jun-14 15:22N 33°43' W 118°16'0 0.0
2018-Jun-14 15:00N 33°43' W 118°16'0 0.0
2018-Jun-14 14:22N 33°43' W 118°16'0 0.0
2018-Jun-14 13:55N 33°43' W 118°16'0 0.0
2018-Jun-14 13:28N 33°43' W 118°16'0 0.0
2018-Jun-14 12:58N 33°43' W 118°16'0 0.0
2018-Jun-14 12:25N 33°43' W 118°16'0 0.0
2018-Jun-14 11:55N 33°43' W 118°16'0 0.0
2018-Jun-14 11:16N 33°43' W 118°16'0 0.0
2018-Jun-14 10:58N 33°43' W 118°16'0 0.0
2018-Jun-14 10:28N 33°43' W 118°16'0 0.0
2018-Jun-14 09:55N 33°43' W 118°16'0 0.0
2018-Jun-14 09:19N 33°43' W 118°16'0 0.0
2018-Jun-14 08:57N 33°43' W 118°16'0 0.0
2018-Jun-14 08:28N 33°43' W 118°16'0 0.0
2018-Jun-14 07:55N 33°43' W 118°16'0 0.0
2018-Jun-14 07:28N 33°43' W 118°16'0 0.0
2018-Jun-14 06:58N 33°43' W 118°16'0 0.0
2018-Jun-14 06:25N 33°43' W 118°16'0 0.0
2018-Jun-14 05:55N 33°43' W 118°16'0 0.0
2018-Jun-14 05:28N 33°43' W 118°16'0 0.0
2018-Jun-14 04:58N 33°43' W 118°16'0 0.0
2018-Jun-14 04:28N 33°43' W 118°16'0 0.0
2018-Jun-14 04:01N 33°43' W 118°16'0 0.0
2018-Jun-14 03:16N 33°43' W 118°16'0 0.0
2018-Jun-14 02:55N 33°43' W 118°16'0 0.0
2018-Jun-14 02:28N 33°43' W 118°16'0 0.0
2018-Jun-14 01:55N 33°43' W 118°16'0 0.0
2018-Jun-14 01:28N 33°43' W 118°16'0 0.0
2018-Jun-14 00:46N 33°43' W 118°16'0 0.0
2018-Jun-14 00:28N 33°43' W 118°16'0 0.0
2018-Jun-13 23:57N 33°43' W 118°16'0 0.0
2018-Jun-13 23:28N 33°43' W 118°16'0 0.0
2018-Jun-13 22:58N 33°43' W 118°16'0 0.0
2018-Jun-13 22:25N 33°43' W 118°16'0 0.0
2018-Jun-13 21:58N 33°43' W 118°16'0 0.0
2018-Jun-13 21:25N 33°43' W 118°16'0 0.0
2018-Jun-13 20:58N 33°43' W 118°16'0 0.0
2018-Jun-13 20:25N 33°43' W 118°16'0 0.0
2018-Jun-13 19:55N 33°43' W 118°16'0 0.0
2018-Jun-13 19:30N 33°43' W 118°16'0 0.0
2018-Jun-13 18:58N 33°43' W 118°16'0 0.0
2018-Jun-13 18:28N 33°43' W 118°16'0 0.0
2018-Jun-13 17:58N 33°43' W 118°16'0 0.0
2018-Jun-13 17:22N 33°43' W 118°16'0 0.0
2018-Jun-13 16:58N 33°43' W 118°16'0 0.0
2018-Jun-13 16:19N 33°43' W 118°16'0 0.0
2018-Jun-13 15:52N 33°43' W 118°16'0 0.0
2018-Jun-13 15:28N 33°43' W 118°16'0 0.0
2018-Jun-13 14:58N 33°43' W 118°16'0 0.0
2018-Jun-13 14:25N 33°43' W 118°16'0 0.0
2018-Jun-13 13:58N 33°43' W 118°16'0 0.0
2018-Jun-13 13:22N 33°43' W 118°16'0 0.0
2018-Jun-13 12:52N 33°43' W 118°16'0 0.0
2018-Jun-13 12:28N 33°43' W 118°16'0 0.0
2018-Jun-13 11:58N 33°43' W 118°16'0 0.0
2018-Jun-13 11:25N 33°43' W 118°16'0 0.0
2018-Jun-13 10:58N 33°43' W 118°16'0 0.0
2018-Jun-13 10:28N 33°43' W 118°16'0 0.0
2018-Jun-13 09:58N 33°43' W 118°16'0 0.0
2018-Jun-13 09:28N 33°43' W 118°16'0 0.0
2018-Jun-13 08:31N 33°43' W 118°16'0 0.0
2018-Jun-13 08:28N 33°43' W 118°16'0 0.0
2018-Jun-13 07:58N 33°43' W 118°16'0 0.0
2018-Jun-13 07:25N 33°43' W 118°16'0 0.0
2018-Jun-13 06:46N 33°43' W 118°16'0 0.0
2018-Jun-13 06:28N 33°43' W 118°16'0 0.0
2018-Jun-13 05:58N 33°43' W 118°16'0 0.0
2018-Jun-13 05:28N 33°43' W 118°16'0 0.0
2018-Jun-13 04:40N 33°43' W 118°16'0 0.0
2018-Jun-13 04:28N 33°43' W 118°16'0 0.0
2018-Jun-13 03:58N 33°43' W 118°16'0 0.0
2018-Jun-13 03:28N 33°43' W 118°16'0 0.0
2018-Jun-13 02:58N 33°43' W 118°16'0 0.0
2018-Jun-13 02:28N 33°43' W 118°16'0 0.0
2018-Jun-13 02:01N 33°43' W 118°16'0 0.0
2018-Jun-13 01:28N 33°43' W 118°16'0 0.0
2018-Jun-13 00:58N 33°43' W 118°16'0 0.0
2018-Jun-13 00:28N 33°43' W 118°16'0 0.0
2018-Jun-12 23:55N 33°43' W 118°16'0 0.0
2018-Jun-12 23:28N 33°43' W 118°16'0 0.0
2018-Jun-12 22:55N 33°43' W 118°16'0 0.0
2018-Jun-12 22:25N 33°43' W 118°16'0 0.0
2018-Jun-12 21:58N 33°43' W 118°16'0 0.0
2018-Jun-12 21:25N 33°43' W 118°16'0 0.0
2018-Jun-12 20:55N 33°43' W 118°16'0 0.0
2018-Jun-12 20:28N 33°43' W 118°16'0 0.0
2018-Jun-12 19:58N 33°43' W 118°16'0 0.0
2018-Jun-12 19:28N 33°43' W 118°16'0 0.0
2018-Jun-12 18:55N 33°43' W 118°16'0 0.0
2018-Jun-12 18:28N 33°43' W 118°16'0 0.0
2018-Jun-12 17:52N 33°43' W 118°16'0 0.0
2018-Jun-12 17:28N 33°43' W 118°16'0 0.0
2018-Jun-12 16:55N 33°43' W 118°16'0 0.0
2018-Jun-12 16:29N 33°43' W 118°16'0 0.0
2018-Jun-12 15:59N 33°43' W 118°16'0 0.0
2018-Jun-12 15:29N 33°43' W 118°16'0 0.0
2018-Jun-12 14:55N 33°43' W 118°16'0 0.0
2018-Jun-12 14:29N 33°43' W 118°16'0 0.0
2018-Jun-12 13:59N 33°43' W 118°16'0 0.0
2018-Jun-12 13:29N 33°43' W 118°16'0 0.0
2018-Jun-12 12:58N 33°43' W 118°16'0 0.0
2018-Jun-12 12:28N 33°43' W 118°16'0 0.0
2018-Jun-12 11:58N 33°43' W 118°16'0 0.0
2018-Jun-12 11:28N 33°43' W 118°16'0 0.0
2018-Jun-12 10:55N 33°43' W 118°16'0 0.0
2018-Jun-12 10:28N 33°43' W 118°16'0 0.0
2018-Jun-12 09:58N 33°43' W 118°16'0 0.0
2018-Jun-12 09:26N 33°43' W 118°16'0 0.0
2018-Jun-12 08:58N 33°43' W 118°16'0 0.0
2018-Jun-12 08:26N 33°43' W 118°16'0 0.0
2018-Jun-12 07:59N 33°43' W 118°16'0 0.0
2018-Jun-12 07:29N 33°43' W 118°16'0 0.0
2018-Jun-12 06:49N 33°43' W 118°16'0 0.0
2018-Jun-12 06:25N 33°43' W 118°16'0 0.0
2018-Jun-12 05:55N 33°43' W 118°16'0 0.0
2018-Jun-12 05:28N 33°43' W 118°16'0 0.0
2018-Jun-12 04:58N 33°43' W 118°16'0 0.0
2018-Jun-12 04:28N 33°43' W 118°16'0 0.0
2018-Jun-12 03:56N 33°43' W 118°16'0 0.0
2018-Jun-12 03:25N 33°43' W 118°16'0 0.0
2018-Jun-12 02:59N 33°43' W 118°16'0 0.0
2018-Jun-12 02:29N 33°43' W 118°16'0 0.0
2018-Jun-12 01:59N 33°43' W 118°16'0 0.0
2018-Jun-12 01:29N 33°43' W 118°16'0 0.0
2018-Jun-12 00:59N 33°43' W 118°16'0 0.0
2018-Jun-12 00:29N 33°43' W 118°16'0 0.0
2018-Jun-11 23:58N 33°43' W 118°16'0 0.0
2018-Jun-11 23:28N 33°43' W 118°16'0 0.0
2018-Jun-11 22:58N 33°43' W 118°16'0 0.0
2018-Jun-11 22:28N 33°43' W 118°16'0 0.0
2018-Jun-11 21:58N 33°43' W 118°16'0 0.0
2018-Jun-11 21:22N 33°43' W 118°16'0 0.0
2018-Jun-11 20:58N 33°43' W 118°16'0 0.0
2018-Jun-11 20:25N 33°43' W 118°16'0 0.0
2018-Jun-11 19:55N 33°43' W 118°16'0 0.0
2018-Jun-11 19:28N 33°43' W 118°16'0 0.0
2018-Jun-11 18:58N 33°43' W 118°16'0 0.0
2018-Jun-11 18:25N 33°43' W 118°16'0 0.0
2018-Jun-11 17:59N 33°43' W 118°16'0 0.0
2018-Jun-11 17:29N 33°43' W 118°16'0 0.0
2018-Jun-11 16:56N 33°43' W 118°16'0 0.0
2018-Jun-11 16:20N 33°43' W 118°16'0 0.0
2018-Jun-11 15:59N 33°43' W 118°16'0 0.0
2018-Jun-11 15:29N 33°43' W 118°16'0 0.0
2018-Jun-11 14:59N 33°43' W 118°16'0 0.0
2018-Jun-11 14:23N 33°43' W 118°16'0 0.0
2018-Jun-11 13:59N 33°43' W 118°16'0 0.0
2018-Jun-11 13:29N 33°43' W 118°16'0 0.0
2018-Jun-11 12:59N 33°43' W 118°16'0 0.0
2018-Jun-11 12:28N 33°43' W 118°16'0 0.0
2018-Jun-11 11:55N 33°43' W 118°16'0 0.0
2018-Jun-11 11:28N 33°43' W 118°16'0 0.0
2018-Jun-11 10:52N 33°43' W 118°16'0 0.0
2018-Jun-11 10:22N 33°43' W 118°16'0 0.0
2018-Jun-11 09:58N 33°43' W 118°16'0 0.0
2018-Jun-11 09:19N 33°43' W 118°16'0 0.0
2018-Jun-11 08:58N 33°43' W 118°16'0 0.0
2018-Jun-11 08:28N 33°43' W 118°16'0 0.0
2018-Jun-11 07:58N 33°43' W 118°16'0 0.0
2018-Jun-11 07:29N 33°43' W 118°16'0 0.0
2018-Jun-11 06:59N 33°43' W 118°16'0 0.0
2018-Jun-11 06:26N 33°43' W 118°16'0 0.0
2018-Jun-11 05:59N 33°43' W 118°16'0 0.0
2018-Jun-11 05:29N 33°43' W 118°16'0 0.0
2018-Jun-11 04:58N 33°43' W 118°16'0 0.0
2018-Jun-11 04:28N 33°43' W 118°16'0 0.0
2018-Jun-11 03:58N 33°43' W 118°16'0 0.0
2018-Jun-11 03:28N 33°43' W 118°16'0 0.0
2018-Jun-11 02:58N 33°43' W 118°16'0 0.0
2018-Jun-11 02:16N 33°43' W 118°16'0 0.0
2018-Jun-11 01:58N 33°43' W 118°16'0 0.0
2018-Jun-11 01:19N 33°43' W 118°16'0 0.0
2018-Jun-11 00:58N 33°43' W 118°16'0 0.0
2018-Jun-11 00:23N 33°43' W 118°16'0 0.0
2018-Jun-10 23:59N 33°43' W 118°16'0 0.0
2018-Jun-10 23:29N 33°43' W 118°16'0 0.0
2018-Jun-10 22:59N 33°43' W 118°16'0 0.0
2018-Jun-10 22:29N 33°43' W 118°16'0 0.0
2018-Jun-10 21:59N 33°43' W 118°16'0 0.0
2018-Jun-10 21:28N 33°43' W 118°16'0 0.0
2018-Jun-10 21:00N 33°43' W 118°16'0 0.0
2018-Jun-10 20:30N 33°43' W 118°16'0 0.0
2018-Jun-10 20:00N 33°43' W 118°16'0 0.0
2018-Jun-10 19:30N 33°43' W 118°16'0 0.0
2018-Jun-10 18:57N 33°43' W 118°16'0 0.0
2018-Jun-10 18:30N 33°43' W 118°16'0 0.0
2018-Jun-10 17:54N 33°43' W 118°16'0 0.0
2018-Jun-10 17:30N 33°43' W 118°16'0 0.0
2018-Jun-10 17:00N 33°43' W 118°16'0 0.0
2018-Jun-10 16:30N 33°43' W 118°16'0 0.0
2018-Jun-10 15:59N 33°43' W 118°16'0 0.0
2018-Jun-10 15:23N 33°43' W 118°16'0 0.0
2018-Jun-10 14:56N 33°43' W 118°16'0 0.0
2018-Jun-10 14:26N 33°43' W 118°16'0 0.0
2018-Jun-10 13:26N 33°43' W 118°16'0 0.0
2018-Jun-10 12:54N 33°43' W 118°16'0 0.0
2018-Jun-10 11:54N 33°43' W 118°16'0 0.0
2018-Jun-10 11:30N 33°43' W 118°16'0 0.0
2018-Jun-10 11:00N 33°43' W 118°16'0 0.0
2018-Jun-10 10:24N 33°43' W 118°16'0 0.0
2018-Jun-10 09:54N 33°43' W 118°16'0 0.0
2018-Jun-10 09:18N 33°43' W 118°16'0 0.0
2018-Jun-10 08:51N 33°43' W 118°16'0 0.0
2018-Jun-10 07:48N 33°43' W 118°16'0 0.0
2018-Jun-10 07:27N 33°43' W 118°16'0 0.0
2018-Jun-10 07:00N 33°43' W 118°16'0 0.0
2018-Jun-10 06:30N 33°43' W 118°16'0 0.0
2018-Jun-10 05:53N 33°43' W 118°16'0 0.0
2018-Jun-10 05:20N 33°43' W 118°16'0 0.0
2018-Jun-10 04:59N 33°43' W 118°16'0 0.0
2018-Jun-10 04:29N 33°43' W 118°16'0 0.0
2018-Jun-10 03:47N 33°43' W 118°16'0 0.0
2018-Jun-10 03:18N 33°43' W 118°16'0 0.0
2018-Jun-10 02:54N 33°43' W 118°16'0 0.0
2018-Jun-10 02:30N 33°43' W 118°16'0 0.0
2018-Jun-10 01:57N 33°43' W 118°16'0 0.0
2018-Jun-10 01:30N 33°43' W 118°16'0 0.0
2018-Jun-10 01:00N 33°43' W 118°16'0 0.0
2018-Jun-10 00:30N 33°43' W 118°16'0 0.0
2018-Jun-10 00:00N 33°43' W 118°16'0 0.0
2018-Jun-09 23:27N 33°43' W 118°16'0 0.0
2018-Jun-09 23:00N 33°43' W 118°16'0 0.0
2018-Jun-09 22:29N 33°43' W 118°16'0 0.0
2018-Jun-09 21:59N 33°43' W 118°16'0 0.0
2018-Jun-09 21:29N 33°43' W 118°16'0 0.0
2018-Jun-09 21:00N 33°43' W 118°16'0 0.0
2018-Jun-09 20:30N 33°43' W 118°16'0 0.0
2018-Jun-09 20:00N 33°43' W 118°16'0 0.0
2018-Jun-09 19:30N 33°43' W 118°16'0 0.0
2018-Jun-09 19:00N 33°43' W 118°16'0 0.0
2018-Jun-09 18:30N 33°43' W 118°16'0 0.0
2018-Jun-09 18:00N 33°43' W 118°16'0 0.0
2018-Jun-09 17:27N 33°43' W 118°16'0 0.0
2018-Jun-09 17:00N 33°43' W 118°16'0 0.0
2018-Jun-09 16:30N 33°43' W 118°16'0 0.0
2018-Jun-09 16:00N 33°43' W 118°16'0 0.0
2018-Jun-09 14:57N 33°43' W 118°16'0 0.0
2018-Jun-09 14:28N 33°43' W 118°16'0 0.0
2018-Jun-09 13:58N 33°43' W 118°16'0 0.0
2018-Jun-09 13:28N 33°43' W 118°16'0 0.0
2018-Jun-09 12:58N 33°43' W 118°16'  

Dump ship's entire track history